createdAt,value
2022-12-07T06:03:04.064Z,60.42
2022-12-07T06:08:06.580Z,56.40
2022-12-07T06:13:09.883Z,58.03
2022-12-07T06:18:12.076Z,61.42
2022-12-07T06:23:17.006Z,61.00
2022-12-07T06:28:19.187Z,61.95
2022-12-07T06:33:21.392Z,54.90
2022-12-07T06:38:23.706Z,58.25
2022-12-07T06:43:25.893Z,60.30
2022-12-07T06:48:28.117Z,58.50
2022-12-07T06:53:30.324Z,57.97
2022-12-07T06:58:32.600Z,61.15
2022-12-07T07:03:34.797Z,51.58
2022-12-07T07:08:38.050Z,49.45
2022-12-07T07:13:40.469Z,46.25
2022-12-07T07:18:42.712Z,40.30
2022-12-07T07:23:44.964Z,37.17
2022-12-07T07:28:47.213Z,37.47
2022-12-07T07:33:49.407Z,31.77
2022-12-07T07:38:51.633Z,34.40
2022-12-07T07:43:53.807Z,34.95
2022-12-07T07:48:56.112Z,27.67
2022-12-07T07:53:58.347Z,33.72
2022-12-07T07:59:00.595Z,17.70
2022-12-07T08:04:02.901Z,16.25
2022-12-07T08:09:06.787Z,14.23
2022-12-07T08:14:09.025Z,12.75
2022-12-07T08:19:11.334Z,13.70
2022-12-07T08:24:13.616Z,12.48
2022-12-07T08:29:15.824Z,10.75
2022-12-07T08:34:18.456Z,12.27
2022-12-07T08:39:31.449Z,12.00
2022-12-07T08:44:34.149Z,11.43
2022-12-07T08:49:43.831Z,13.50
2022-12-07T08:54:46.253Z,10.20
2022-12-07T08:59:48.468Z,11.07
2022-12-07T09:04:50.712Z,10.55
2022-12-07T09:09:53.011Z,11.95
2022-12-07T09:14:55.230Z,9.93
2022-12-07T09:19:57.425Z,8.38
2022-12-07T09:25:00.142Z,9.98
2022-12-07T09:30:03.727Z,9.68
2022-12-07T09:35:06.581Z,10.32
2022-12-07T09:40:09.458Z,8.25
2022-12-07T09:45:20.073Z,7.53
2022-12-07T09:55:30.064Z,9.25
2022-12-07T10:00:32.442Z,8.23
2022-12-07T10:05:43.087Z,6.55
2022-12-07T10:15:50.446Z,6.15
2022-12-07T10:21:12.265Z,4.38
2022-12-07T10:26:21.344Z,5.28
2022-12-07T10:31:24.550Z,4.95
2022-12-07T10:36:37.369Z,4.50
2022-12-07T10:41:57.122Z,5.88
2022-12-07T10:47:08.884Z,4.20
2022-12-07T10:52:18.867Z,3.40
2022-12-07T10:57:26.394Z,3.13
2022-12-07T11:02:43.554Z,5.15
2022-12-07T11:07:57.608Z,6.25
2022-12-07T11:13:15.599Z,4.15
2022-12-07T11:18:39.527Z,3.40
2022-12-07T11:23:47.805Z,3.65
2022-12-07T11:28:52.559Z,5.65
2022-12-07T11:33:59.700Z,2.33
2022-12-07T11:39:12.160Z,2.88
2022-12-07T11:44:18.268Z,3.03
2022-12-07T11:49:43.222Z,2.97
2022-12-07T11:54:48.112Z,5.38
2022-12-07T11:59:57.405Z,3.35
2022-12-07T12:05:03.924Z,3.10
2022-12-07T12:10:21.774Z,2.90
2022-12-07T12:15:42.375Z,3.63
2022-12-07T12:20:51.288Z,4.20
2022-12-07T12:25:56.954Z,6.68
2022-12-07T12:31:15.771Z,3.22
2022-12-07T12:36:26.621Z,4.50
2022-12-07T12:41:50.236Z,6.95
2022-12-07T12:47:02.867Z,4.03
2022-12-07T12:52:35.951Z,6.88
2022-12-07T12:57:38.376Z,6.55
2022-12-07T13:02:48.959Z,7.25
2022-12-07T13:13:14.945Z,5.78
2022-12-07T13:18:29.419Z,6.47
2022-12-07T13:23:46.573Z,5.20
2022-12-07T13:29:05.141Z,4.63
2022-12-07T13:34:40.074Z,8.63
2022-12-07T13:39:53.796Z,4.68
2022-12-07T13:44:57.880Z,4.57
2022-12-07T13:50:00.129Z,7.50
2022-12-07T13:55:15.862Z,8.10
2022-12-07T14:00:21.244Z,6.35
2022-12-07T14:05:27.134Z,8.02
2022-12-07T14:10:35.579Z,8.48
2022-12-07T14:15:37.879Z,8.88
2022-12-07T14:20:42.139Z,7.70
2022-12-07T14:25:51.541Z,6.32
2022-12-07T14:30:54.128Z,6.55
2022-12-07T14:35:58.897Z,6.35
2022-12-07T14:41:19.969Z,5.28
2022-12-07T14:46:22.240Z,8.10
2022-12-07T14:56:50.417Z,6.18
2022-12-07T15:01:52.597Z,7.45
2022-12-07T15:06:59.818Z,10.82
2022-12-07T15:12:02.110Z,6.20
2022-12-07T15:17:09.629Z,4.45
2022-12-07T15:22:14.055Z,9.68
2022-12-07T15:27:16.246Z,13.48
2022-12-07T15:32:18.463Z,5.93
2022-12-07T15:37:20.740Z,7.13
2022-12-07T15:42:23.007Z,5.57
2022-12-07T15:47:25.257Z,5.20
2022-12-07T15:52:27.728Z,9.13
2022-12-07T15:57:31.546Z,5.72
2022-12-07T16:02:38.194Z,7.10
2022-12-07T16:07:47.618Z,7.85
2022-12-07T16:12:49.939Z,10.48
2022-12-07T16:17:55.336Z,6.15
2022-12-07T16:22:57.682Z,9.05
2022-12-07T16:27:59.993Z,8.20
2022-12-07T16:33:02.920Z,14.30
2022-12-07T16:38:05.149Z,10.10
2022-12-07T16:43:07.707Z,13.30
2022-12-07T16:48:10.169Z,12.75
2022-12-07T16:53:12.693Z,10.52
2022-12-07T16:58:15.924Z,4.57
2022-12-07T17:03:20.746Z,9.25
2022-12-07T17:08:23.287Z,9.35
2022-12-07T17:13:44.176Z,4.50
2022-12-07T17:18:49.255Z,13.48
2022-12-07T17:23:52.222Z,5.90
2022-12-07T17:28:54.945Z,7.63
2022-12-07T17:33:57.141Z,7.75
2022-12-07T17:38:59.638Z,5.13
2022-12-07T17:44:06.271Z,6.45
2022-12-07T17:49:09.029Z,10.10
2022-12-07T17:54:12.277Z,7.07
2022-12-07T17:59:15.296Z,4.60
2022-12-07T18:04:17.563Z,7.22
2022-12-07T18:09:21.050Z,14.48
2022-12-07T18:14:23.318Z,8.00
2022-12-07T18:19:25.691Z,7.60
2022-12-07T18:24:34.803Z,10.02
2022-12-07T18:29:38.926Z,12.63
2022-12-07T18:34:41.398Z,11.88
2022-12-07T18:39:43.637Z,6.80
2022-12-07T18:44:45.850Z,7.85
2022-12-07T18:49:48.073Z,11.73
2022-12-07T18:54:50.237Z,4.70
2022-12-07T18:59:52.458Z,9.20
2022-12-07T19:04:54.682Z,7.28
2022-12-07T19:09:56.999Z,5.28
2022-12-07T19:14:59.215Z,9.82
2022-12-07T19:20:02.594Z,13.43
2022-12-07T19:25:05.563Z,11.88
2022-12-07T19:30:10.599Z,9.07
2022-12-07T19:35:12.908Z,10.70
2022-12-07T19:40:15.145Z,16.73
2022-12-07T19:45:17.425Z,13.30
2022-12-07T19:50:19.664Z,8.48
2022-12-07T19:55:22.057Z,11.15
2022-12-07T20:00:24.259Z,9.23
2022-12-07T20:05:26.469Z,10.13
2022-12-07T20:10:28.648Z,8.43
2022-12-07T20:15:30.850Z,11.02
2022-12-07T20:20:33.079Z,8.05
2022-12-07T20:25:36.833Z,11.73
2022-12-07T20:30:46.767Z,6.90
2022-12-07T20:35:49.141Z,12.97
2022-12-07T20:40:51.404Z,12.23
2022-12-07T20:45:54.305Z,10.75
2022-12-07T20:51:05.831Z,6.78
2022-12-07T20:56:28.625Z,11.63
2022-12-07T21:01:31.123Z,7.20
2022-12-07T21:06:33.834Z,11.13
2022-12-07T21:11:37.603Z,7.68
2022-12-07T21:16:40.064Z,5.50
2022-12-07T21:21:42.358Z,6.65
2022-12-07T21:26:44.578Z,12.95
2022-12-07T21:31:46.861Z,9.57
2022-12-07T21:36:49.428Z,10.68
2022-12-07T21:41:51.786Z,11.35
2022-12-07T21:46:54.094Z,11.25
2022-12-07T21:51:56.400Z,5.30
2022-12-07T21:56:58.778Z,6.40
2022-12-07T22:02:01.156Z,8.70
2022-12-07T22:07:03.403Z,7.38
2022-12-07T22:12:06.017Z,5.85
2022-12-07T22:17:08.441Z,9.13
2022-12-07T22:22:15.687Z,8.82
2022-12-07T22:27:18.194Z,8.15
2022-12-07T22:32:47.059Z,8.25
2022-12-07T22:37:42.638Z,11.20
2022-12-07T22:42:44.875Z,6.68
